createdAt,value
2018-10-16T00:00:15.275Z,11.47
2018-10-16T00:02:44.377Z,10.53
2018-10-16T00:05:13.043Z,11.20
2018-10-16T00:07:41.530Z,12.47
2018-10-16T00:10:10.608Z,13.87
2018-10-16T00:12:39.223Z,13.47
2018-10-16T00:15:09.342Z,13.40
2018-10-16T00:17:37.862Z,12.03
2018-10-16T00:20:07.102Z,12.07
2018-10-16T00:22:35.614Z,11.93
2018-10-16T00:27:56.946Z,10.90
2018-10-16T00:30:25.526Z,10.73
2018-10-16T00:32:54.055Z,11.80
2018-10-16T00:35:22.587Z,11.00
2018-10-16T00:37:51.060Z,10.70
2018-10-16T00:40:19.601Z,11.83
2018-10-16T00:42:48.103Z,11.97
2018-10-16T00:45:16.614Z,11.00
2018-10-16T00:47:45.258Z,10.33
2018-10-16T00:50:13.758Z,10.80
2018-10-16T00:52:42.246Z,10.20
2018-10-16T00:55:11.022Z,11.13
2018-10-16T00:57:40.153Z,11.07
2018-10-16T01:00:09.797Z,9.80
2018-10-16T01:02:38.291Z,11.80
2018-10-16T01:05:08.033Z,12.07
2018-10-16T01:07:36.566Z,12.57
2018-10-16T01:10:05.755Z,10.93
2018-10-16T01:12:34.317Z,11.10
2018-10-16T01:15:02.858Z,11.60
2018-10-16T01:17:31.358Z,11.67
2018-10-16T01:19:59.858Z,11.70
2018-10-16T01:22:28.363Z,11.47
2018-10-16T01:24:56.898Z,12.63
2018-10-16T01:27:25.418Z,11.40
2018-10-16T01:29:54.135Z,12.73
2018-10-16T01:32:22.686Z,13.50
2018-10-16T01:34:51.180Z,12.47
2018-10-16T01:37:19.667Z,10.40
2018-10-16T01:39:48.155Z,10.80
2018-10-16T01:42:16.636Z,10.73
2018-10-16T01:44:45.131Z,11.00
2018-10-16T01:47:13.610Z,9.50
2018-10-16T01:49:42.103Z,11.30
2018-10-16T01:52:10.641Z,11.40
2018-10-16T01:54:39.138Z,10.93
2018-10-16T01:57:07.691Z,16.73
2018-10-16T01:59:36.183Z,14.30
2018-10-16T02:02:05.717Z,17.40
2018-10-16T02:04:34.263Z,14.83
2018-10-16T02:07:02.942Z,13.73
2018-10-16T02:09:31.452Z,11.83
2018-10-16T02:11:59.955Z,12.40
2018-10-16T02:14:28.668Z,13.67
2018-10-16T02:16:57.191Z,12.47
2018-10-16T02:19:25.684Z,12.40
2018-10-16T02:21:54.167Z,12.63
2018-10-16T02:24:22.859Z,11.23
2018-10-16T02:26:51.456Z,9.90
2018-10-16T02:29:19.941Z,10.37
2018-10-16T02:31:48.486Z,11.43
2018-10-16T02:34:17.008Z,11.87
2018-10-16T02:36:45.536Z,11.53
2018-10-16T02:39:14.019Z,12.30
2018-10-16T02:41:42.510Z,13.80
2018-10-16T02:44:10.991Z,14.40
2018-10-16T02:46:39.491Z,13.40
2018-10-16T02:49:08.189Z,14.00
2018-10-16T02:51:36.695Z,14.53
2018-10-16T02:54:05.413Z,13.17
2018-10-16T02:56:33.919Z,13.37
2018-10-16T02:59:02.454Z,12.90
2018-10-16T03:01:30.961Z,11.40
2018-10-16T03:03:59.551Z,10.53
2018-10-16T03:06:28.039Z,11.43
2018-10-16T03:08:56.558Z,9.97
2018-10-16T03:11:25.070Z,9.50
2018-10-16T03:13:53.593Z,10.70
2018-10-16T03:16:22.074Z,13.27
2018-10-16T03:18:50.574Z,12.23
2018-10-16T03:21:19.066Z,12.87
2018-10-16T03:23:47.586Z,11.50
2018-10-16T03:26:16.123Z,10.47
2018-10-16T03:28:44.621Z,11.20
2018-10-16T03:31:13.106Z,16.30
2018-10-16T03:33:42.579Z,13.80
2018-10-16T03:36:11.056Z,13.30
2018-10-16T03:38:41.058Z,12.20
2018-10-16T03:41:09.625Z,11.77
2018-10-16T03:43:39.813Z,11.90
2018-10-16T03:46:08.403Z,10.60
2018-10-16T03:48:36.994Z,13.37
2018-10-16T03:51:05.882Z,12.13
2018-10-16T03:53:34.374Z,11.67
2018-10-16T03:56:02.859Z,10.73
2018-10-16T03:58:31.355Z,11.57
2018-10-16T04:00:59.834Z,11.80
2018-10-16T04:03:28.429Z,10.87
2018-10-16T04:05:56.924Z,10.07
2018-10-16T04:08:25.411Z,10.70
2018-10-16T04:10:53.887Z,10.50
2018-10-16T04:13:22.372Z,10.57
2018-10-16T04:15:50.852Z,9.37
2018-10-16T04:18:19.338Z,9.70
2018-10-16T04:20:47.838Z,10.73
2018-10-16T04:23:16.409Z,11.10
2018-10-16T04:25:44.928Z,11.30
2018-10-16T04:28:13.418Z,10.43
2018-10-16T04:30:41.974Z,12.30
2018-10-16T04:33:10.667Z,12.30
2018-10-16T04:35:39.146Z,14.93
2018-10-16T04:38:07.654Z,13.00
2018-10-16T04:40:36.151Z,11.13
2018-10-16T04:43:04.679Z,12.67
2018-10-16T04:45:51.556Z,12.50
2018-10-16T04:48:20.067Z,13.00
2018-10-16T04:50:48.564Z,21.70
2018-10-16T04:53:17.059Z,19.40
2018-10-16T04:55:45.547Z,17.57
2018-10-16T04:58:14.034Z,15.40
2018-10-16T05:00:42.515Z,17.13
2018-10-16T05:03:11.014Z,13.77
2018-10-16T05:05:39.534Z,14.70
2018-10-16T05:08:08.030Z,14.40
2018-10-16T05:10:36.520Z,13.20
2018-10-16T05:13:05.633Z,17.30
2018-10-16T05:15:34.836Z,18.50
2018-10-16T05:18:03.551Z,19.37
2018-10-16T05:20:32.019Z,18.30
2018-10-16T05:23:01.072Z,15.53
2018-10-16T05:25:30.625Z,14.07
2018-10-16T05:27:59.353Z,12.63
2018-10-16T05:30:28.128Z,12.13
2018-10-16T05:32:56.717Z,13.30
2018-10-16T05:35:25.234Z,16.00
2018-10-16T05:37:53.718Z,15.50
2018-10-16T05:40:22.255Z,19.03
2018-10-16T05:42:50.743Z,18.37
2018-10-16T05:45:19.399Z,15.17
2018-10-16T05:47:47.911Z,13.93
2018-10-16T05:50:16.439Z,12.23
2018-10-16T05:52:44.944Z,14.00
2018-10-16T05:55:13.458Z,13.20
2018-10-16T05:57:41.957Z,15.67
2018-10-16T06:00:21.402Z,13.30
2018-10-16T06:02:50.744Z,13.60
2018-10-16T06:05:19.261Z,11.53
2018-10-16T06:07:47.735Z,12.60
2018-10-16T06:10:16.238Z,13.17
2018-10-16T06:12:44.726Z,16.17
2018-10-16T06:15:13.247Z,17.60
2018-10-16T06:17:41.750Z,16.00
2018-10-16T06:20:12.457Z,17.27
2018-10-16T06:22:41.415Z,17.10
2018-10-16T06:25:10.551Z,17.03
2018-10-16T06:27:39.981Z,19.10
2018-10-16T06:30:08.909Z,20.53
2018-10-16T06:32:37.858Z,17.87
2018-10-16T06:35:07.352Z,13.10
2018-10-16T06:37:35.822Z,13.80
2018-10-16T06:40:04.750Z,14.00
2018-10-16T06:42:33.259Z,12.67
2018-10-16T06:45:01.837Z,11.87
2018-10-16T06:47:30.462Z,13.33
2018-10-16T06:49:58.880Z,13.13
2018-10-16T06:52:27.358Z,14.77
2018-10-16T06:54:55.911Z,13.57
2018-10-16T06:57:24.393Z,14.73
2018-10-16T06:59:52.867Z,14.90
2018-10-16T07:02:21.380Z,12.63
2018-10-16T07:04:49.895Z,14.40
2018-10-16T07:07:18.560Z,13.33
2018-10-16T07:09:46.950Z,13.40
2018-10-16T07:12:15.460Z,12.80
2018-10-16T07:14:44.026Z,13.60
2018-10-16T07:17:12.501Z,12.97
2018-10-16T07:19:41.046Z,14.47
2018-10-16T07:22:11.063Z,13.63
2018-10-16T07:24:39.590Z,12.53
2018-10-16T07:30:16.205Z,13.43
2018-10-16T07:32:44.723Z,14.10
2018-10-16T07:35:13.251Z,13.03
2018-10-16T07:37:41.899Z,12.83
2018-10-16T07:40:11.722Z,11.60
2018-10-16T07:42:40.602Z,13.50
2018-10-16T07:45:09.235Z,12.97
2018-10-16T07:47:38.216Z,13.40
2018-10-16T07:50:08.979Z,14.80
2018-10-16T07:52:37.568Z,13.03
2018-10-16T07:55:08.132Z,14.43
2018-10-16T07:57:36.626Z,12.40
2018-10-16T08:00:05.994Z,13.27
2018-10-16T08:02:35.879Z,12.00
2018-10-16T08:05:04.459Z,11.90
2018-10-16T08:07:32.967Z,12.20
2018-10-16T08:10:01.463Z,13.40
2018-10-16T08:12:29.991Z,12.03
2018-10-16T08:14:58.499Z,12.60
2018-10-16T08:17:27.042Z,12.70
2018-10-16T08:19:55.698Z,11.30
2018-10-16T08:22:24.175Z,12.23
2018-10-16T08:24:52.682Z,11.43
2018-10-16T08:27:21.178Z,10.60
2018-10-16T08:29:49.670Z,11.40
2018-10-16T08:32:21.247Z,11.70
2018-10-16T08:34:49.827Z,12.57
2018-10-16T08:38:22.747Z,11.00
2018-10-16T08:40:51.404Z,10.57
2018-10-16T08:43:35.762Z,12.33
2018-10-16T08:46:15.355Z,12.80
2018-10-16T08:48:55.140Z,11.30
2018-10-16T08:51:41.331Z,11.70
2018-10-16T08:54:10.245Z,10.93
2018-10-16T08:56:38.766Z,12.60
2018-10-16T08:59:07.278Z,12.60
2018-10-16T09:01:35.801Z,11.43
2018-10-16T09:04:04.562Z,12.47
2018-10-16T09:06:33.403Z,12.43
2018-10-16T09:09:02.283Z,11.53
2018-10-16T09:11:30.890Z,13.17
2018-10-16T09:13:59.500Z,12.00
2018-10-16T09:16:27.967Z,12.47
2018-10-16T09:18:56.462Z,11.60
2018-10-16T09:21:24.965Z,11.30
2018-10-16T09:23:53.459Z,10.63
2018-10-16T09:26:21.990Z,12.20
2018-10-16T09:28:50.507Z,11.00
2018-10-16T09:31:19.015Z,10.00
2018-10-16T09:33:47.523Z,11.10
2018-10-16T09:36:16.023Z,10.77
2018-10-16T09:38:44.564Z,10.53
2018-10-16T09:41:13.151Z,9.37
2018-10-16T09:43:42.947Z,10.47
2018-10-16T09:46:11.466Z,9.43
2018-10-16T09:48:41.310Z,10.87
2018-10-16T09:51:09.838Z,10.57
2018-10-16T09:53:40.360Z,10.53
2018-10-16T09:56:08.918Z,10.90
2018-10-16T09:58:37.440Z,10.40
2018-10-16T10:01:11.327Z,11.70
2018-10-16T10:03:41.498Z,11.00
2018-10-16T10:06:10.036Z,9.43
2018-10-16T10:08:38.922Z,9.60
2018-10-16T10:11:07.596Z,9.30
2018-10-16T10:13:36.062Z,10.40
2018-10-16T10:16:04.758Z,10.63
2018-10-16T10:18:33.367Z,9.90
2018-10-16T10:21:01.883Z,10.17
2018-10-16T10:23:30.520Z,9.27
2018-10-16T10:25:58.905Z,9.97
2018-10-16T10:28:27.404Z,9.33
2018-10-16T10:30:55.947Z,9.40
2018-10-16T10:33:24.468Z,9.27
2018-10-16T10:35:52.986Z,9.47
2018-10-16T10:38:21.621Z,9.40
2018-10-16T10:40:50.148Z,9.33
2018-10-16T10:43:18.647Z,9.67
2018-10-16T10:45:47.227Z,9.30
2018-10-16T10:48:15.736Z,9.20
2018-10-16T10:50:44.459Z,10.90
2018-10-16T10:53:12.814Z,9.07
2018-10-16T10:55:41.324Z,10.00
2018-10-16T10:58:09.843Z,10.83
2018-10-16T11:00:38.413Z,9.83
2018-10-16T11:03:07.092Z,10.73
2018-10-16T11:05:35.556Z,9.60
2018-10-16T11:08:04.117Z,9.70
2018-10-16T11:10:32.711Z,9.30
2018-10-16T11:13:01.696Z,9.13
2018-10-16T11:15:30.199Z,9.63
2018-10-16T11:17:58.709Z,8.90
2018-10-16T11:20:27.234Z,9.20
2018-10-16T11:22:55.739Z,10.00
2018-10-16T11:25:24.284Z,10.40
2018-10-16T11:27:52.774Z,9.07
2018-10-16T11:30:21.371Z,10.07
2018-10-16T11:32:49.864Z,10.63
2018-10-16T11:35:18.386Z,8.97
2018-10-16T11:37:46.918Z,9.60
2018-10-16T11:40:15.770Z,9.60
2018-10-16T11:42:44.270Z,9.47
2018-10-16T11:45:12.875Z,9.50
2018-10-16T11:47:41.287Z,9.80
2018-10-16T11:50:11.095Z,9.10
2018-10-16T11:52:39.638Z,8.90
2018-10-16T11:55:09.715Z,10.30
2018-10-16T11:57:38.283Z,10.33
2018-10-16T12:00:08.144Z,9.73
2018-10-16T12:02:37.520Z,9.73
2018-10-16T12:05:05.381Z,9.83
2018-10-16T12:07:33.902Z,9.67
2018-10-16T12:10:02.420Z,9.20
2018-10-16T12:12:30.922Z,8.67
2018-10-16T12:14:59.439Z,10.13
2018-10-16T12:17:40.803Z,9.00
2018-10-16T12:20:13.567Z,10.47
2018-10-16T12:22:42.244Z,11.23
2018-10-16T12:25:10.871Z,17.30
2018-10-16T12:27:39.306Z,13.67
2018-10-16T12:30:08.335Z,10.43
2018-10-16T12:32:37.111Z,10.23
2018-10-16T12:35:06.165Z,9.63
2018-10-16T12:37:34.722Z,9.87
2018-10-16T12:40:03.373Z,10.33
2018-10-16T12:42:31.831Z,9.00
2018-10-16T12:45:00.351Z,9.80
2018-10-16T12:47:28.843Z,10.00
2018-10-16T12:49:57.366Z,8.70
2018-10-16T12:52:25.867Z,9.27
2018-10-16T12:54:54.388Z,9.10
2018-10-16T12:57:23.003Z,10.63
2018-10-16T12:59:51.473Z,9.47
2018-10-16T13:02:20.572Z,9.87
2018-10-16T13:04:49.067Z,9.97
2018-10-16T13:07:21.958Z,8.70
2018-10-16T13:09:50.467Z,9.20
2018-10-16T13:12:18.960Z,8.20
2018-10-16T13:14:47.462Z,8.57
2018-10-16T13:17:16.011Z,9.67
2018-10-16T13:19:44.494Z,8.43
2018-10-16T13:22:13.079Z,10.53
2018-10-16T13:24:41.530Z,10.63
2018-10-16T13:27:10.045Z,8.53
2018-10-16T13:29:38.672Z,7.90
2018-10-16T13:32:07.068Z,9.00
2018-10-16T13:34:35.806Z,8.80
2018-10-16T13:37:04.369Z,8.93
2018-10-16T13:39:32.851Z,9.00
2018-10-16T13:42:01.515Z,8.80
2018-10-16T13:44:30.023Z,9.77
2018-10-16T13:46:58.526Z,10.30
2018-10-16T13:49:27.028Z,10.33
2018-10-16T13:51:55.535Z,10.63
2018-10-16T13:54:24.043Z,11.50
2018-10-16T13:56:52.736Z,10.53
2018-10-16T13:59:21.191Z,11.60
2018-10-16T14:01:50.539Z,9.77
2018-10-16T14:04:19.070Z,10.13
2018-10-16T14:06:48.449Z,11.37
2018-10-16T14:09:16.963Z,11.23
2018-10-16T14:11:45.459Z,11.13
2018-10-16T14:14:14.046Z,11.43
2018-10-16T14:16:42.516Z,10.20
2018-10-16T14:19:17.546Z,11.27
2018-10-16T14:21:46.120Z,12.33
2018-10-16T14:24:14.642Z,11.20
2018-10-16T14:26:43.142Z,11.47
2018-10-16T14:29:11.638Z,11.03
2018-10-16T14:31:40.150Z,10.63
2018-10-16T14:34:08.717Z,11.80
2018-10-16T14:36:37.182Z,11.10
2018-10-16T14:39:08.671Z,10.60
2018-10-16T14:41:37.521Z,9.80
2018-10-16T14:44:06.630Z,10.80
2018-10-16T14:46:35.298Z,9.97
2018-10-16T14:49:03.851Z,10.17
2018-10-16T14:51:33.002Z,9.00
2018-10-16T14:54:01.811Z,9.93
2018-10-16T14:56:30.798Z,8.97
2018-10-16T14:58:59.515Z,19.27
2018-10-16T15:01:28.438Z,16.83
2018-10-16T15:03:56.985Z,16.43
2018-10-16T15:06:25.579Z,34.10
2018-10-16T15:08:54.138Z,30.00
2018-10-16T15:11:22.831Z,20.00
2018-10-16T15:13:51.591Z,14.57
2018-10-16T15:16:20.200Z,10.97
2018-10-16T15:18:48.703Z,11.83
2018-10-16T15:21:17.212Z,12.63
2018-10-16T15:23:45.790Z,17.83
2018-10-16T15:26:14.294Z,15.50
2018-10-16T15:28:43.645Z,13.67
2018-10-16T15:31:12.154Z,12.27
2018-10-16T15:33:41.142Z,13.23
2018-10-16T15:36:09.678Z,13.90
2018-10-16T15:38:38.204Z,15.00
2018-10-16T15:41:07.285Z,12.60
2018-10-16T15:43:35.860Z,17.30
2018-10-16T15:46:04.461Z,14.20
2018-10-16T15:48:32.951Z,14.73
2018-10-16T15:51:01.454Z,15.03
2018-10-16T15:53:30.009Z,16.20
2018-10-16T15:55:58.622Z,18.00
2018-10-16T15:58:27.093Z,14.90
2018-10-16T16:00:55.630Z,12.53
2018-10-16T16:03:25.009Z,11.70
2018-10-16T16:05:53.648Z,12.63
2018-10-16T16:08:22.158Z,11.43
2018-10-16T16:10:50.684Z,12.10
2018-10-16T16:13:19.195Z,11.30
2018-10-16T16:15:47.753Z,12.47
2018-10-16T16:18:16.331Z,13.67
2018-10-16T16:20:44.800Z,14.70
2018-10-16T16:23:13.299Z,18.10
2018-10-16T16:25:41.853Z,17.70
2018-10-16T16:28:10.369Z,14.27
2018-10-16T16:30:38.872Z,12.33
2018-10-16T16:33:07.409Z,14.00
2018-10-16T16:35:35.943Z,12.97
2018-10-16T16:38:05.884Z,12.07
2018-10-16T16:40:34.430Z,13.60
2018-10-16T16:43:02.966Z,11.00
2018-10-16T16:45:31.560Z,12.40
2018-10-16T16:48:00.061Z,12.03
2018-10-16T16:50:30.233Z,13.33
2018-10-16T16:52:58.796Z,11.63
2018-10-16T16:55:27.291Z,11.33
2018-10-16T16:57:55.844Z,12.10
2018-10-16T17:00:24.338Z,10.90
2018-10-16T17:02:52.838Z,11.20
2018-10-16T17:05:21.343Z,10.80
2018-10-16T17:07:49.879Z,12.07
2018-10-16T17:10:18.402Z,12.43
2018-10-16T17:12:46.960Z,13.10
2018-10-16T17:15:16.580Z,17.00
2018-10-16T17:17:46.282Z,16.60
2018-10-16T17:20:27.416Z,13.50
2018-10-16T17:22:55.953Z,14.53
2018-10-16T17:25:24.685Z,13.03
2018-10-16T17:27:53.091Z,12.77
2018-10-16T17:30:21.625Z,13.10
2018-10-16T17:32:50.157Z,15.43
2018-10-16T17:35:18.687Z,13.50
2018-10-16T17:37:47.217Z,14.50
2018-10-16T17:40:17.018Z,15.53
2018-10-16T17:42:45.827Z,13.73
2018-10-16T17:45:15.693Z,15.33
2018-10-16T17:47:44.269Z,14.93
2018-10-16T17:50:14.746Z,13.53
2018-10-16T17:52:43.259Z,16.00
2018-10-16T17:55:12.822Z,14.07
2018-10-16T17:57:41.493Z,15.10
2018-10-16T18:00:13.304Z,14.60
2018-10-16T18:02:43.319Z,16.07
2018-10-16T18:05:12.324Z,15.40
2018-10-16T18:07:40.852Z,17.13
2018-10-16T18:10:09.571Z,20.70
2018-10-16T18:12:38.075Z,20.57
2018-10-16T18:15:08.253Z,22.53
2018-10-16T18:17:36.721Z,20.20
2018-10-16T18:20:06.426Z,20.10
2018-10-16T18:22:34.930Z,19.90
2018-10-16T18:25:03.453Z,19.50
2018-10-16T18:27:31.973Z,16.83
2018-10-16T18:30:00.492Z,18.03
2018-10-16T18:32:28.982Z,18.37
2018-10-16T18:34:57.498Z,18.83
2018-10-16T18:37:26.119Z,19.67
2018-10-16T18:39:54.671Z,21.57
2018-10-16T18:42:23.142Z,24.73
2018-10-16T18:44:51.696Z,58.87
2018-10-16T18:47:20.212Z,134.50
2018-10-16T18:49:48.780Z,173.60
2018-10-16T18:52:17.286Z,159.00
2018-10-16T18:54:45.796Z,138.13
2018-10-16T18:57:14.385Z,85.27
2018-10-16T18:59:42.855Z,54.10
2018-10-16T19:02:11.392Z,36.27
2018-10-16T19:16:09.567Z,72.70
2018-10-16T19:18:38.313Z,58.30
2018-10-16T19:21:07.248Z,39.00
2018-10-16T19:23:35.763Z,45.90
2018-10-16T19:26:04.307Z,53.47
2018-10-16T19:28:32.842Z,52.80
2018-10-16T19:31:01.362Z,52.40
2018-10-16T19:33:30.050Z,49.17
2018-10-16T19:35:58.599Z,60.60
2018-10-16T19:38:27.096Z,55.70
2018-10-16T19:40:55.612Z,47.30
2018-10-16T19:43:24.128Z,35.97
2018-10-16T19:45:52.641Z,29.83
2018-10-16T19:48:21.165Z,32.23
2018-10-16T19:50:49.671Z,35.97
2018-10-16T19:53:18.200Z,34.63
2018-10-16T19:55:46.719Z,35.67
2018-10-16T19:58:15.247Z,28.90
2018-10-16T20:00:43.791Z,24.90
2018-10-16T20:03:13.178Z,22.80
2018-10-16T20:05:41.659Z,22.50
2018-10-16T20:08:10.199Z,28.00
2018-10-16T20:10:38.715Z,29.53
2018-10-16T20:13:07.209Z,28.07
2018-10-16T20:15:35.782Z,25.70
2018-10-16T20:18:04.247Z,25.93
2018-10-16T20:20:32.772Z,25.40
2018-10-16T20:23:01.410Z,23.07
2018-10-16T20:25:30.035Z,24.20
2018-10-16T20:27:58.895Z,23.27
2018-10-16T20:30:27.399Z,23.77
2018-10-16T20:32:55.947Z,25.17
2018-10-16T20:35:24.470Z,24.40
2018-10-16T20:40:45.218Z,24.00
2018-10-16T20:43:13.730Z,25.07
2018-10-16T20:45:42.259Z,23.77
2018-10-16T20:48:10.762Z,23.90
2018-10-16T20:50:39.318Z,22.77
2018-10-16T20:53:07.841Z,21.90
2018-10-16T20:55:36.363Z,20.33
2018-10-16T20:58:04.994Z,23.57
2018-10-16T21:00:40.298Z,22.33
2018-10-16T21:03:08.799Z,22.47
2018-10-16T21:05:37.342Z,22.00
2018-10-16T21:08:05.829Z,20.33
2018-10-16T21:10:34.363Z,20.00
2018-10-16T21:13:03.031Z,20.23
2018-10-16T21:15:31.509Z,17.93
2018-10-16T21:18:00.019Z,20.50
2018-10-16T21:20:28.520Z,18.87
2018-10-16T21:22:57.100Z,20.93
2018-10-16T21:25:25.586Z,22.20
2018-10-16T21:27:54.097Z,20.70
2018-10-16T21:30:22.634Z,19.00
2018-10-16T21:32:51.142Z,20.33
2018-10-16T21:35:19.648Z,20.13
2018-10-16T21:37:48.167Z,19.10
2018-10-16T21:40:16.686Z,20.50
2018-10-16T21:42:45.303Z,20.37
2018-10-16T21:45:13.858Z,19.40
2018-10-16T21:47:42.336Z,22.40
2018-10-16T21:50:10.862Z,20.13
2018-10-16T21:52:39.394Z,22.93
2018-10-16T21:55:08.057Z,20.67
2018-10-16T21:57:36.547Z,17.63
2018-10-16T22:00:06.171Z,18.80
2018-10-16T22:02:40.447Z,17.60
2018-10-16T22:05:09.062Z,19.63
2018-10-16T22:07:37.536Z,17.90
2018-10-16T22:10:06.592Z,20.20
2018-10-16T22:12:35.102Z,19.77
2018-10-16T22:15:03.687Z,22.33
2018-10-16T22:17:32.163Z,20.57
2018-10-16T22:20:00.678Z,20.63
2018-10-16T22:22:29.199Z,20.33
2018-10-16T22:25:04.103Z,21.10
2018-10-16T22:27:32.664Z,22.17
2018-10-16T22:30:01.403Z,24.00
2018-10-16T22:32:29.982Z,23.13
2018-10-16T22:34:58.508Z,24.77
2018-10-16T22:37:27.018Z,24.90
2018-10-16T22:39:55.527Z,25.20
2018-10-16T22:42:24.057Z,24.70
2018-10-16T22:44:52.575Z,21.60
2018-10-16T22:47:21.077Z,24.00
2018-10-16T22:49:49.575Z,23.57
2018-10-16T22:52:18.135Z,22.77
2018-10-16T22:54:46.639Z,22.30
2018-10-16T22:57:15.158Z,22.07
2018-10-16T22:59:44.183Z,20.17
2018-10-16T23:02:12.795Z,19.80
2018-10-16T23:04:41.359Z,19.90
2018-10-16T23:07:10.010Z,18.90
2018-10-16T23:09:38.463Z,18.60
2018-10-16T23:12:07.390Z,18.80
2018-10-16T23:14:35.888Z,18.33
2018-10-16T23:17:04.501Z,17.70
2018-10-16T23:19:33.279Z,19.43
2018-10-16T23:22:01.775Z,18.40
2018-10-16T23:24:30.276Z,20.40
2018-10-16T23:26:58.786Z,18.37
2018-10-16T23:29:27.295Z,18.40
2018-10-16T23:31:55.798Z,18.60
2018-10-16T23:34:24.318Z,17.37
2018-10-16T23:36:52.882Z,17.73
2018-10-16T23:39:21.442Z,18.43
2018-10-16T23:41:49.922Z,16.80
2018-10-16T23:44:18.463Z,19.30
2018-10-16T23:46:46.957Z,18.37
2018-10-16T23:49:15.502Z,19.00
2018-10-16T23:51:43.994Z,19.70
2018-10-16T23:54:16.471Z,18.73
2018-10-16T23:56:44.994Z,19.93
2018-10-16T23:59:13.592Z,16.93
